sensor_id;sensor_type;location;lat;lon;timestamp;temperature;humidity
53410;DHT22;66590;50.734;4.246;2023-04-06T00:00:14;9.80;87.10
53410;DHT22;66590;50.734;4.246;2023-04-06T00:02:41;9.70;86.30
53410;DHT22;66590;50.734;4.246;2023-04-06T00:05:08;9.60;86.80
53410;DHT22;66590;50.734;4.246;2023-04-06T00:07:37;9.70;87.60
53410;DHT22;66590;50.734;4.246;2023-04-06T00:10:05;9.70;87.40
53410;DHT22;66590;50.734;4.246;2023-04-06T00:12:32;9.60;87.30
53410;DHT22;66590;50.734;4.246;2023-04-06T00:14:59;9.60;87.30
53410;DHT22;66590;50.734;4.246;2023-04-06T00:17:26;9.60;87.70
53410;DHT22;66590;50.734;4.246;2023-04-06T00:19:53;9.70;88.00
53410;DHT22;66590;50.734;4.246;2023-04-06T00:22:20;9.70;87.10
53410;DHT22;66590;50.734;4.246;2023-04-06T00:24:48;9.70;87.30
53410;DHT22;66590;50.734;4.246;2023-04-06T00:27:15;9.60;87.20
53410;DHT22;66590;50.734;4.246;2023-04-06T00:29:43;9.50;89.00
53410;DHT22;66590;50.734;4.246;2023-04-06T00:32:10;9.60;88.30
53410;DHT22;66590;50.734;4.246;2023-04-06T00:34:37;9.80;87.40
53410;DHT22;66590;50.734;4.246;2023-04-06T00:37:04;9.70;87.40
53410;DHT22;66590;50.734;4.246;2023-04-06T00:39:31;9.70;87.30
53410;DHT22;66590;50.734;4.246;2023-04-06T00:42:11;9.70;88.20
53410;DHT22;66590;50.734;4.246;2023-04-06T00:44:39;9.40;88.10
53410;DHT22;66590;50.734;4.246;2023-04-06T00:47:06;9.50;87.90
53410;DHT22;66590;50.734;4.246;2023-04-06T00:49:34;9.40;88.40
53410;DHT22;66590;50.734;4.246;2023-04-06T00:52:01;9.40;88.50
53410;DHT22;66590;50.734;4.246;2023-04-06T00:54:29;9.60;87.50
53410;DHT22;66590;50.734;4.246;2023-04-06T00:56:56;9.50;86.90
53410;DHT22;66590;50.734;4.246;2023-04-06T00:59:25;9.60;87.40
53410;DHT22;66590;50.734;4.246;2023-04-06T01:01:53;9.40;87.50
53410;DHT22;66590;50.734;4.246;2023-04-06T01:04:20;9.30;88.40
53410;DHT22;66590;50.734;4.246;2023-04-06T01:06:48;9.30;88.20
53410;DHT22;66590;50.734;4.246;2023-04-06T01:09:15;9.40;88.10
53410;DHT22;66590;50.734;4.246;2023-04-06T01:11:42;9.30;88.10
53410;DHT22;66590;50.734;4.246;2023-04-06T01:14:09;9.10;89.00
53410;DHT22;66590;50.734;4.246;2023-04-06T01:16:38;9.10;89.70
53410;DHT22;66590;50.734;4.246;2023-04-06T01:19:08;9.00;90.20
53410;DHT22;66590;50.734;4.246;2023-04-06T01:21:35;8.90;90.30
53410;DHT22;66590;50.734;4.246;2023-04-06T01:24:05;8.80;90.40
53410;DHT22;66590;50.734;4.246;2023-04-06T01:26:33;8.80;90.80
53410;DHT22;66590;50.734;4.246;2023-04-06T01:29:00;8.70;91.00
53410;DHT22;66590;50.734;4.246;2023-04-06T01:31:28;8.70;91.40
53410;DHT22;66590;50.734;4.246;2023-04-06T01:33:55;8.70;91.60
53410;DHT22;66590;50.734;4.246;2023-04-06T01:36:22;8.60;91.70
53410;DHT22;66590;50.734;4.246;2023-04-06T01:38:49;8.50;92.30
53410;DHT22;66590;50.734;4.246;2023-04-06T01:41:18;8.40;93.30
53410;DHT22;66590;50.734;4.246;2023-04-06T01:43:46;8.50;92.60
53410;DHT22;66590;50.734;4.246;2023-04-06T01:46:13;8.50;93.00
53410;DHT22;66590;50.734;4.246;2023-04-06T01:48:41;8.40;93.10
53410;DHT22;66590;50.734;4.246;2023-04-06T01:51:08;8.30;92.90
53410;DHT22;66590;50.734;4.246;2023-04-06T01:53:35;8.30;93.30
53410;DHT22;66590;50.734;4.246;2023-04-06T01:56:02;8.30;93.00
53410;DHT22;66590;50.734;4.246;2023-04-06T01:58:30;8.30;92.80
53410;DHT22;66590;50.734;4.246;2023-04-06T02:00:57;8.40;92.60
53410;DHT22;66590;50.734;4.246;2023-04-06T02:03:24;8.30;92.60
53410;DHT22;66590;50.734;4.246;2023-04-06T02:05:51;8.30;92.40
53410;DHT22;66590;50.734;4.246;2023-04-06T02:08:18;8.30;92.40
53410;DHT22;66590;50.734;4.246;2023-04-06T02:10:45;8.30;92.40
53410;DHT22;66590;50.734;4.246;2023-04-06T02:13:13;8.30;92.40
53410;DHT22;66590;50.734;4.246;2023-04-06T02:15:41;8.30;92.70
53410;DHT22;66590;50.734;4.246;2023-04-06T02:18:08;8.30;93.20
53410;DHT22;66590;50.734;4.246;2023-04-06T02:20:35;8.30;93.70
53410;DHT22;66590;50.734;4.246;2023-04-06T02:23:02;8.30;94.00
53410;DHT22;66590;50.734;4.246;2023-04-06T02:25:29;8.10;94.30
53410;DHT22;66590;50.734;4.246;2023-04-06T02:27:56;8.00;94.70
53410;DHT22;66590;50.734;4.246;2023-04-06T02:30:23;8.00;94.60
53410;DHT22;66590;50.734;4.246;2023-04-06T02:32:51;8.10;94.60
53410;DHT22;66590;50.734;4.246;2023-04-06T02:35:19;8.10;94.80
53410;DHT22;66590;50.734;4.246;2023-04-06T02:37:46;8.10;95.30
53410;DHT22;66590;50.734;4.246;2023-04-06T02:40:14;8.10;95.30
53410;DHT22;66590;50.734;4.246;2023-04-06T02:42:41;8.10;95.70
53410;DHT22;66590;50.734;4.246;2023-04-06T02:45:08;8.10;96.30
53410;DHT22;66590;50.734;4.246;2023-04-06T02:47:35;8.10;96.30
53410;DHT22;66590;50.734;4.246;2023-04-06T02:50:04;8.00;96.80
53410;DHT22;66590;50.734;4.246;2023-04-06T02:52:32;8.00;96.80
53410;DHT22;66590;50.734;4.246;2023-04-06T02:54:59;8.10;96.40
53410;DHT22;66590;50.734;4.246;2023-04-06T02:57:26;8.10;95.20
53410;DHT22;66590;50.734;4.246;2023-04-06T02:59:53;8.10;95.00
53410;DHT22;66590;50.734;4.246;2023-04-06T03:02:20;8.20;94.30
53410;DHT22;66590;50.734;4.246;2023-04-06T03:04:47;8.20;94.10
53410;DHT22;66590;50.734;4.246;2023-04-06T03:07:15;8.20;94.00
53410;DHT22;66590;50.734;4.246;2023-04-06T03:09:43;8.30;94.00
53410;DHT22;66590;50.734;4.246;2023-04-06T03:12:09;8.40;93.50
53410;DHT22;66590;50.734;4.246;2023-04-06T03:14:37;8.40;93.20
53410;DHT22;66590;50.734;4.246;2023-04-06T03:17:04;8.30;93.20
53410;DHT22;66590;50.734;4.246;2023-04-06T03:19:31;8.20;93.20
53410;DHT22;66590;50.734;4.246;2023-04-06T03:21:58;8.30;93.20
53410;DHT22;66590;50.734;4.246;2023-04-06T03:24:26;8.40;93.10
53410;DHT22;66590;50.734;4.246;2023-04-06T03:26:53;8.50;92.70
53410;DHT22;66590;50.734;4.246;2023-04-06T03:29:20;8.50;92.50
53410;DHT22;66590;50.734;4.246;2023-04-06T03:31:47;8.40;92.80
53410;DHT22;66590;50.734;4.246;2023-04-06T03:34:14;8.30;93.40
53410;DHT22;66590;50.734;4.246;2023-04-06T03:36:41;8.20;93.90
53410;DHT22;66590;50.734;4.246;2023-04-06T03:39:08;8.20;94.10
53410;DHT22;66590;50.734;4.246;2023-04-06T03:41:37;8.30;93.70
53410;DHT22;66590;50.734;4.246;2023-04-06T03:44:05;8.40;93.60
53410;DHT22;66590;50.734;4.246;2023-04-06T03:46:32;8.50;93.60
53410;DHT22;66590;50.734;4.246;2023-04-06T03:48:59;8.50;93.60
53410;DHT22;66590;50.734;4.246;2023-04-06T03:51:27;8.40;93.90
53410;DHT22;66590;50.734;4.246;2023-04-06T03:53:54;8.40;94.10
53410;DHT22;66590;50.734;4.246;2023-04-06T03:56:21;8.40;94.30
53410;DHT22;66590;50.734;4.246;2023-04-06T03:58:49;8.20;94.80
53410;DHT22;66590;50.734;4.246;2023-04-06T04:01:16;8.40;94.60
53410;DHT22;66590;50.734;4.246;2023-04-06T04:03:43;8.10;95.10
53410;DHT22;66590;50.734;4.246;2023-04-06T04:06:11;7.90;95.80
53410;DHT22;66590;50.734;4.246;2023-04-06T04:08:38;7.80;96.60
53410;DHT22;66590;50.734;4.246;2023-04-06T04:11:05;7.80;97.00
53410;DHT22;66590;50.734;4.246;2023-04-06T04:13:32;7.90;96.80
53410;DHT22;66590;50.734;4.246;2023-04-06T04:16:00;8.00;96.20
53410;DHT22;66590;50.734;4.246;2023-04-06T04:18:27;8.00;96.30
53410;DHT22;66590;50.734;4.246;2023-04-06T04:20:54;8.10;96.40
53410;DHT22;66590;50.734;4.246;2023-04-06T04:23:21;8.00;96.60
53410;DHT22;66590;50.734;4.246;2023-04-06T04:25:48;8.10;96.80
53410;DHT22;66590;50.734;4.246;2023-04-06T04:28:15;8.10;97.00
53410;DHT22;66590;50.734;4.246;2023-04-06T04:30:42;8.10;96.90
53410;DHT22;66590;50.734;4.246;2023-04-06T04:33:10;8.40;96.30
53410;DHT22;66590;50.734;4.246;2023-04-06T04:35:37;8.30;96.50
53410;DHT22;66590;50.734;4.246;2023-04-06T04:38:04;8.40;96.40
53410;DHT22;66590;50.734;4.246;2023-04-06T04:40:31;8.40;96.30
53410;DHT22;66590;50.734;4.246;2023-04-06T04:42:58;8.40;96.40
53410;DHT22;66590;50.734;4.246;2023-04-06T04:45:25;8.40;96.70
53410;DHT22;66590;50.734;4.246;2023-04-06T04:47:52;8.50;96.30
53410;DHT22;66590;50.734;4.246;2023-04-06T04:50:22;8.40;96.60
53410;DHT22;66590;50.734;4.246;2023-04-06T04:52:49;8.40;96.70
53410;DHT22;66590;50.734;4.246;2023-04-06T04:55:16;8.50;96.50
53410;DHT22;66590;50.734;4.246;2023-04-06T04:57:43;8.60;96.60
53410;DHT22;66590;50.734;4.246;2023-04-06T05:00:12;8.70;96.30
53410;DHT22;66590;50.734;4.246;2023-04-06T05:02:39;8.60;96.40
53410;DHT22;66590;50.734;4.246;2023-04-06T05:05:07;8.50;96.70
53410;DHT22;66590;50.734;4.246;2023-04-06T05:07:35;8.60;96.40
53410;DHT22;66590;50.734;4.246;2023-04-06T05:10:03;8.50;96.80
53410;DHT22;66590;50.734;4.246;2023-04-06T05:12:30;8.40;97.30
53410;DHT22;66590;50.734;4.246;2023-04-06T05:14:57;8.40;97.50
53410;DHT22;66590;50.734;4.246;2023-04-06T05:17:24;8.40;97.60
53410;DHT22;66590;50.734;4.246;2023-04-06T05:19:51;8.30;98.00
53410;DHT22;66590;50.734;4.246;2023-04-06T05:22:18;8.30;98.50
53410;DHT22;66590;50.734;4.246;2023-04-06T05:24:46;8.20;98.80
53410;DHT22;66590;50.734;4.246;2023-04-06T05:27:13;8.20;99.40
53410;DHT22;66590;50.734;4.246;2023-04-06T05:29:40;8.20;99.50
53410;DHT22;66590;50.734;4.246;2023-04-06T05:32:07;8.30;99.50
53410;DHT22;66590;50.734;4.246;2023-04-06T05:34:35;8.30;99.90
53410;DHT22;66590;50.734;4.246;2023-04-06T05:37:03;8.30;99.90
53410;DHT22;66590;50.734;4.246;2023-04-06T05:39:30;8.40;99.90
53410;DHT22;66590;50.734;4.246;2023-04-06T05:42:01;8.40;99.90
53410;DHT22;66590;50.734;4.246;2023-04-06T05:44:28;8.50;99.90
53410;DHT22;66590;50.734;4.246;2023-04-06T05:46:55;8.50;99.90
53410;DHT22;66590;50.734;4.246;2023-04-06T05:49:22;8.60;99.90
53410;DHT22;66590;50.734;4.246;2023-04-06T05:51:49;8.70;99.90
53410;DHT22;66590;50.734;4.246;2023-04-06T05:54:16;8.90;99.90
53410;DHT22;66590;50.734;4.246;2023-04-06T05:56:43;8.80;99.90
53410;DHT22;66590;50.734;4.246;2023-04-06T05:59:12;8.70;99.90
53410;DHT22;66590;50.734;4.246;2023-04-06T06:01:39;8.70;99.90
53410;DHT22;66590;50.734;4.246;2023-04-06T06:04:06;8.80;99.90
53410;DHT22;66590;50.734;4.246;2023-04-06T06:06:33;8.80;99.90
53410;DHT22;66590;50.734;4.246;2023-04-06T06:09:00;8.80;99.90
53410;DHT22;66590;50.734;4.246;2023-04-06T06:11:27;8.80;99.90
53410;DHT22;66590;50.734;4.246;2023-04-06T06:13:54;8.80;99.90
53410;DHT22;66590;50.734;4.246;2023-04-06T06:16:22;8.90;99.90
53410;DHT22;66590;50.734;4.246;2023-04-06T06:18:49;9.10;99.90
53410;DHT22;66590;50.734;4.246;2023-04-06T06:21:16;8.90;99.90
53410;DHT22;66590;50.734;4.246;2023-04-06T06:23:44;8.90;99.90
53410;DHT22;66590;50.734;4.246;2023-04-06T06:26:11;8.70;99.90
53410;DHT22;66590;50.734;4.246;2023-04-06T06:28:41;8.60;99.90
53410;DHT22;66590;50.734;4.246;2023-04-06T06:31:10;8.50;99.90
53410;DHT22;66590;50.734;4.246;2023-04-06T06:33:39;8.60;99.90
53410;DHT22;66590;50.734;4.246;2023-04-06T06:36:07;8.50;99.90
53410;DHT22;66590;50.734;4.246;2023-04-06T06:38:34;8.60;99.90
53410;DHT22;66590;50.734;4.246;2023-04-06T06:41:01;8.70;99.90
53410;DHT22;66590;50.734;4.246;2023-04-06T06:43:28;8.80;99.90
53410;DHT22;66590;50.734;4.246;2023-04-06T06:45:55;8.80;99.90
53410;DHT22;66590;50.734;4.246;2023-04-06T06:48:22;8.70;99.90
53410;DHT22;66590;50.734;4.246;2023-04-06T06:50:50;8.70;99.90
53410;DHT22;66590;50.734;4.246;2023-04-06T06:53:18;8.40;99.90
53410;DHT22;66590;50.734;4.246;2023-04-06T06:55:45;8.40;99.90
53410;DHT22;66590;50.734;4.246;2023-04-06T06:58:12;8.50;99.90
53410;DHT22;66590;50.734;4.246;2023-04-06T07:00:39;8.40;99.90
53410;DHT22;66590;50.734;4.246;2023-04-06T07:03:06;8.40;99.90
53410;DHT22;66590;50.734;4.246;2023-04-06T07:05:33;8.50;99.90
53410;DHT22;66590;50.734;4.246;2023-04-06T07:08:01;8.50;99.90
53410;DHT22;66590;50.734;4.246;2023-04-06T07:10:28;8.60;99.90
53410;DHT22;66590;50.734;4.246;2023-04-06T07:12:56;8.70;99.90
53410;DHT22;66590;50.734;4.246;2023-04-06T07:15:25;8.70;99.90
53410;DHT22;66590;50.734;4.246;2023-04-06T07:17:52;8.50;99.90
53410;DHT22;66590;50.734;4.246;2023-04-06T07:20:19;8.60;99.90
53410;DHT22;66590;50.734;4.246;2023-04-06T07:22:46;8.60;99.90
53410;DHT22;66590;50.734;4.246;2023-04-06T07:25:15;8.70;99.90
53410;DHT22;66590;50.734;4.246;2023-04-06T07:27:42;8.70;99.90
53410;DHT22;66590;50.734;4.246;2023-04-06T07:30:10;8.60;99.90
53410;DHT22;66590;50.734;4.246;2023-04-06T07:32:37;8.70;99.90
53410;DHT22;66590;50.734;4.246;2023-04-06T07:35:04;8.60;99.90
53410;DHT22;66590;50.734;4.246;2023-04-06T07:37:32;8.60;99.90
53410;DHT22;66590;50.734;4.246;2023-04-06T07:39:59;8.70;99.90
53410;DHT22;66590;50.734;4.246;2023-04-06T07:42:27;8.50;99.90
53410;DHT22;66590;50.734;4.246;2023-04-06T07:44:54;8.50;99.90
53410;DHT22;66590;50.734;4.246;2023-04-06T07:47:22;8.60;99.90
53410;DHT22;66590;50.734;4.246;2023-04-06T07:49:49;8.70;99.90
53410;DHT22;66590;50.734;4.246;2023-04-06T07:52:16;8.50;99.90
53410;DHT22;66590;50.734;4.246;2023-04-06T07:54:43;8.50;99.90
53410;DHT22;66590;50.734;4.246;2023-04-06T07:57:10;8.60;99.90
53410;DHT22;66590;50.734;4.246;2023-04-06T07:59:39;8.60;99.90
53410;DHT22;66590;50.734;4.246;2023-04-06T08:02:06;8.50;99.90
53410;DHT22;66590;50.734;4.246;2023-04-06T08:04:34;8.60;99.90
53410;DHT22;66590;50.734;4.246;2023-04-06T08:07:02;8.60;99.90
53410;DHT22;66590;50.734;4.246;2023-04-06T08:09:29;8.60;99.90
53410;DHT22;66590;50.734;4.246;2023-04-06T08:11:56;8.70;99.90
53410;DHT22;66590;50.734;4.246;2023-04-06T08:14:23;8.80;99.90
53410;DHT22;66590;50.734;4.246;2023-04-06T08:16:51;8.80;99.90
53410;DHT22;66590;50.734;4.246;2023-04-06T08:19:19;8.60;99.90
53410;DHT22;66590;50.734;4.246;2023-04-06T08:21:46;8.50;99.90
53410;DHT22;66590;50.734;4.246;2023-04-06T08:24:14;8.50;99.90
53410;DHT22;66590;50.734;4.246;2023-04-06T08:26:41;8.40;99.90
53410;DHT22;66590;50.734;4.246;2023-04-06T08:29:08;8.50;99.90
53410;DHT22;66590;50.734;4.246;2023-04-06T08:31:35;8.50;99.90
53410;DHT22;66590;50.734;4.246;2023-04-06T08:34:04;8.50;99.90
53410;DHT22;66590;50.734;4.246;2023-04-06T08:36:32;8.50;99.90
53410;DHT22;66590;50.734;4.246;2023-04-06T08:38:59;8.80;99.90
53410;DHT22;66590;50.734;4.246;2023-04-06T08:41:27;8.70;99.90
53410;DHT22;66590;50.734;4.246;2023-04-06T08:43:57;8.60;99.90
53410;DHT22;66590;50.734;4.246;2023-04-06T08:46:25;8.50;99.90
53410;DHT22;66590;50.734;4.246;2023-04-06T08:48:52;8.40;99.90
53410;DHT22;66590;50.734;4.246;2023-04-06T08:51:24;8.60;99.90
53410;DHT22;66590;50.734;4.246;2023-04-06T08:53:52;8.60;99.90
53410;DHT22;66590;50.734;4.246;2023-04-06T08:56:19;8.70;99.90
53410;DHT22;66590;50.734;4.246;2023-04-06T08:58:47;8.80;99.90
53410;DHT22;66590;50.734;4.246;2023-04-06T09:01:17;9.00;99.90
53410;DHT22;66590;50.734;4.246;2023-04-06T09:03:45;9.00;99.90
53410;DHT22;66590;50.734;4.246;2023-04-06T09:06:13;9.10;99.90
53410;DHT22;66590;50.734;4.246;2023-04-06T09:08:42;9.20;99.90
53410;DHT22;66590;50.734;4.246;2023-04-06T09:11:09;9.20;99.90
53410;DHT22;66590;50.734;4.246;2023-04-06T09:13:46;8.90;99.90
53410;DHT22;66590;50.734;4.246;2023-04-06T09:16:14;8.80;99.90
53410;DHT22;66590;50.734;4.246;2023-04-06T09:18:41;8.90;99.90
53410;DHT22;66590;50.734;4.246;2023-04-06T09:21:09;9.00;99.90
53410;DHT22;66590;50.734;4.246;2023-04-06T09:23:36;8.90;99.90
53410;DHT22;66590;50.734;4.246;2023-04-06T09:26:09;9.00;99.90
53410;DHT22;66590;50.734;4.246;2023-04-06T09:28:47;9.10;99.90
53410;DHT22;66590;50.734;4.246;2023-04-06T09:31:14;9.00;99.90
53410;DHT22;66590;50.734;4.246;2023-04-06T09:33:44;9.10;99.90
53410;DHT22;66590;50.734;4.246;2023-04-06T09:36:11;9.10;99.90
53410;DHT22;66590;50.734;4.246;2023-04-06T09:38:40;9.10;99.90
53410;DHT22;66590;50.734;4.246;2023-04-06T09:41:22;8.90;99.90
53410;DHT22;66590;50.734;4.246;2023-04-06T09:43:50;8.80;99.90
53410;DHT22;66590;50.734;4.246;2023-04-06T09:46:17;9.00;99.90
53410;DHT22;66590;50.734;4.246;2023-04-06T09:48:49;9.00;99.90
53410;DHT22;66590;50.734;4.246;2023-04-06T09:51:18;8.90;99.90
53410;DHT22;66590;50.734;4.246;2023-04-06T09:53:52;9.00;99.90
53410;DHT22;66590;50.734;4.246;2023-04-06T09:56:24;9.00;99.90
53410;DHT22;66590;50.734;4.246;2023-04-06T09:58:58;9.00;99.90
53410;DHT22;66590;50.734;4.246;2023-04-06T10:01:30;8.70;99.90
53410;DHT22;66590;50.734;4.246;2023-04-06T10:04:06;8.90;99.90
53410;DHT22;66590;50.734;4.246;2023-04-06T10:06:38;8.90;99.90
53410;DHT22;66590;50.734;4.246;2023-04-06T10:09:07;9.20;99.90
53410;DHT22;66590;50.734;4.246;2023-04-06T10:11:36;9.20;99.90
53410;DHT22;66590;50.734;4.246;2023-04-06T10:14:03;9.30;99.90
53410;DHT22;66590;50.734;4.246;2023-04-06T10:16:31;9.30;99.90
53410;DHT22;66590;50.734;4.246;2023-04-06T10:19:01;9.40;99.90
53410;DHT22;66590;50.734;4.246;2023-04-06T10:21:31;9.50;99.90
53410;DHT22;66590;50.734;4.246;2023-04-06T10:24:00;9.40;99.90
53410;DHT22;66590;50.734;4.246;2023-04-06T10:26:28;9.20;99.90
53410;DHT22;66590;50.734;4.246;2023-04-06T10:29:02;9.20;99.90
53410;DHT22;66590;50.734;4.246;2023-04-06T10:31:30;9.20;99.90
53410;DHT22;66590;50.734;4.246;2023-04-06T10:33:58;9.30;99.90
53410;DHT22;66590;50.734;4.246;2023-04-06T10:36:26;9.50;99.90
53410;DHT22;66590;50.734;4.246;2023-04-06T10:38:55;9.50;99.90
53410;DHT22;66590;50.734;4.246;2023-04-06T10:41:22;9.40;99.90
53410;DHT22;66590;50.734;4.246;2023-04-06T10:43:57;9.50;99.90
53410;DHT22;66590;50.734;4.246;2023-04-06T10:46:28;9.50;99.90
53410;DHT22;66590;50.734;4.246;2023-04-06T10:48:56;9.40;99.90
53410;DHT22;66590;50.734;4.246;2023-04-06T10:51:27;9.20;99.90
53410;DHT22;66590;50.734;4.246;2023-04-06T10:53:55;9.30;99.90
53410;DHT22;66590;50.734;4.246;2023-04-06T10:56:23;9.30;99.90
53410;DHT22;66590;50.734;4.246;2023-04-06T10:58:52;9.30;99.90
53410;DHT22;66590;50.734;4.246;2023-04-06T11:01:23;9.40;99.90
53410;DHT22;66590;50.734;4.246;2023-04-06T11:03:52;9.60;99.90
53410;DHT22;66590;50.734;4.246;2023-04-06T11:06:20;9.70;99.90
53410;DHT22;66590;50.734;4.246;2023-04-06T11:08:47;9.60;99.90
53410;DHT22;66590;50.734;4.246;2023-04-06T11:11:15;9.60;99.90
53410;DHT22;66590;50.734;4.246;2023-04-06T11:13:44;9.60;99.90
53410;DHT22;66590;50.734;4.246;2023-04-06T11:16:15;9.50;99.90
53410;DHT22;66590;50.734;4.246;2023-04-06T11:18:52;9.40;99.90
53410;DHT22;66590;50.734;4.246;2023-04-06T11:21:29;9.50;99.90
53410;DHT22;66590;50.734;4.246;2023-04-06T11:24:07;9.60;99.90
53410;DHT22;66590;50.734;4.246;2023-04-06T11:26:39;9.50;99.90
53410;DHT22;66590;50.734;4.246;2023-04-06T11:29:06;9.60;99.90
53410;DHT22;66590;50.734;4.246;2023-04-06T11:31:41;9.60;99.90
53410;DHT22;66590;50.734;4.246;2023-04-06T11:34:16;9.60;99.90
53410;DHT22;66590;50.734;4.246;2023-04-06T11:36:45;9.40;99.90
53410;DHT22;66590;50.734;4.246;2023-04-06T11:39:13;9.50;99.90
53410;DHT22;66590;50.734;4.246;2023-04-06T11:41:47;9.60;99.90
53410;DHT22;66590;50.734;4.246;2023-04-06T11:44:14;9.80;99.90
53410;DHT22;66590;50.734;4.246;2023-04-06T11:46:51;10.00;99.90
53410;DHT22;66590;50.734;4.246;2023-04-06T11:49:20;9.60;99.90
53410;DHT22;66590;50.734;4.246;2023-04-06T11:51:47;9.70;99.90
53410;DHT22;66590;50.734;4.246;2023-04-06T11:54:14;9.80;99.90
53410;DHT22;66590;50.734;4.246;2023-04-06T11:56:41;9.80;99.90
53410;DHT22;66590;50.734;4.246;2023-04-06T11:59:11;9.80;99.90
53410;DHT22;66590;50.734;4.246;2023-04-06T12:01:45;9.80;99.90
53410;DHT22;66590;50.734;4.246;2023-04-06T12:04:12;9.90;99.90
53410;DHT22;66590;50.734;4.246;2023-04-06T12:06:40;9.60;99.90
53410;DHT22;66590;50.734;4.246;2023-04-06T12:09:07;9.50;99.90
53410;DHT22;66590;50.734;4.246;2023-04-06T12:11:34;9.80;99.90
53410;DHT22;66590;50.734;4.246;2023-04-06T12:14:01;9.70;99.90
53410;DHT22;66590;50.734;4.246;2023-04-06T12:16:28;9.80;99.90
53410;DHT22;66590;50.734;4.246;2023-04-06T12:18:56;9.70;99.90
53410;DHT22;66590;50.734;4.246;2023-04-06T12:21:23;9.70;99.90
53410;DHT22;66590;50.734;4.246;2023-04-06T12:23:52;9.70;99.90
53410;DHT22;66590;50.734;4.246;2023-04-06T12:26:19;9.70;99.90
53410;DHT22;66590;50.734;4.246;2023-04-06T12:28:45;9.60;99.90
53410;DHT22;66590;50.734;4.246;2023-04-06T12:31:16;9.60;99.90
53410;DHT22;66590;50.734;4.246;2023-04-06T12:33:43;9.60;99.90
53410;DHT22;66590;50.734;4.246;2023-04-06T12:36:11;9.30;99.90
53410;DHT22;66590;50.734;4.246;2023-04-06T12:38:39;9.40;99.90
53410;DHT22;66590;50.734;4.246;2023-04-06T12:41:08;9.50;99.90
53410;DHT22;66590;50.734;4.246;2023-04-06T12:43:35;9.50;99.90
53410;DHT22;66590;50.734;4.246;2023-04-06T12:46:02;9.50;99.90
53410;DHT22;66590;50.734;4.246;2023-04-06T12:48:29;9.60;99.90
53410;DHT22;66590;50.734;4.246;2023-04-06T12:50:57;9.60;99.90
53410;DHT22;66590;50.734;4.246;2023-04-06T12:53:25;9.70;99.90
53410;DHT22;66590;50.734;4.246;2023-04-06T12:55:53;9.60;99.90
53410;DHT22;66590;50.734;4.246;2023-04-06T12:58:23;9.50;99.90
53410;DHT22;66590;50.734;4.246;2023-04-06T13:00:50;9.60;99.90
53410;DHT22;66590;50.734;4.246;2023-04-06T13:03:18;9.60;99.90
53410;DHT22;66590;50.734;4.246;2023-04-06T13:05:46;9.70;99.90
53410;DHT22;66590;50.734;4.246;2023-04-06T13:08:14;9.70;99.90
53410;DHT22;66590;50.734;4.246;2023-04-06T13:10:43;9.80;99.90
53410;DHT22;66590;50.734;4.246;2023-04-06T13:13:10;9.80;99.90
53410;DHT22;66590;50.734;4.246;2023-04-06T13:15:39;9.70;99.90
53410;DHT22;66590;50.734;4.246;2023-04-06T13:18:06;9.70;99.90
53410;DHT22;66590;50.734;4.246;2023-04-06T13:20:33;9.80;99.90
53410;DHT22;66590;50.734;4.246;2023-04-06T13:23:00;9.80;99.90
53410;DHT22;66590;50.734;4.246;2023-04-06T13:25:28;9.70;99.90
53410;DHT22;66590;50.734;4.246;2023-04-06T13:27:55;9.80;99.90
53410;DHT22;66590;50.734;4.246;2023-04-06T13:30:22;9.80;99.90
53410;DHT22;66590;50.734;4.246;2023-04-06T13:32:51;9.80;99.90
53410;DHT22;66590;50.734;4.246;2023-04-06T13:35:18;9.80;99.90
53410;DHT22;66590;50.734;4.246;2023-04-06T13:37:45;9.80;99.90
53410;DHT22;66590;50.734;4.246;2023-04-06T13:40:12;9.80;99.90
53410;DHT22;66590;50.734;4.246;2023-04-06T13:42:39;9.80;99.90
53410;DHT22;66590;50.734;4.246;2023-04-06T13:45:07;9.90;99.90
53410;DHT22;66590;50.734;4.246;2023-04-06T13:47:34;9.80;99.90
53410;DHT22;66590;50.734;4.246;2023-04-06T13:50:03;9.90;99.90
53410;DHT22;66590;50.734;4.246;2023-04-06T13:52:30;9.90;99.90
53410;DHT22;66590;50.734;4.246;2023-04-06T13:54:57;9.80;99.90
53410;DHT22;66590;50.734;4.246;2023-04-06T13:57:24;9.70;99.90
53410;DHT22;66590;50.734;4.246;2023-04-06T13:59:51;9.70;99.90
53410;DHT22;66590;50.734;4.246;2023-04-06T14:02:18;10.00;99.90
53410;DHT22;66590;50.734;4.246;2023-04-06T14:04:46;9.80;99.90
53410;DHT22;66590;50.734;4.246;2023-04-06T14:07:14;9.80;99.90
53410;DHT22;66590;50.734;4.246;2023-04-06T14:09:41;9.90;99.90
53410;DHT22;66590;50.734;4.246;2023-04-06T14:12:08;9.90;99.90
53410;DHT22;66590;50.734;4.246;2023-04-06T14:14:35;9.80;99.90
53410;DHT22;66590;50.734;4.246;2023-04-06T14:17:02;10.00;99.90
53410;DHT22;66590;50.734;4.246;2023-04-06T14:19:29;10.00;99.90
53410;DHT22;66590;50.734;4.246;2023-04-06T14:21:56;10.10;99.90
53410;DHT22;66590;50.734;4.246;2023-04-06T14:24:25;10.20;99.90
53410;DHT22;66590;50.734;4.246;2023-04-06T14:26:52;10.20;99.90
53410;DHT22;66590;50.734;4.246;2023-04-06T14:29:19;10.30;99.90
53410;DHT22;66590;50.734;4.246;2023-04-06T14:31:47;10.10;99.90
53410;DHT22;66590;50.734;4.246;2023-04-06T14:34:15;10.30;99.90
53410;DHT22;66590;50.734;4.246;2023-04-06T14:36:42;10.30;99.90
53410;DHT22;66590;50.734;4.246;2023-04-06T14:39:09;10.50;99.90
53410;DHT22;66590;50.734;4.246;2023-04-06T14:41:37;10.40;99.90
53410;DHT22;66590;50.734;4.246;2023-04-06T14:44:04;10.50;99.90
53410;DHT22;66590;50.734;4.246;2023-04-06T14:46:31;10.60;99.90
53410;DHT22;66590;50.734;4.246;2023-04-06T14:48:58;10.50;99.90
53410;DHT22;66590;50.734;4.246;2023-04-06T14:51:26;10.50;99.90
53410;DHT22;66590;50.734;4.246;2023-04-06T14:53:53;10.40;99.90
53410;DHT22;66590;50.734;4.246;2023-04-06T14:56:21;10.30;99.90
53410;DHT22;66590;50.734;4.246;2023-04-06T14:58:50;10.40;99.90
53410;DHT22;66590;50.734;4.246;2023-04-06T15:01:18;10.50;99.90
53410;DHT22;66590;50.734;4.246;2023-04-06T15:03:45;10.60;99.90
53410;DHT22;66590;50.734;4.246;2023-04-06T15:06:13;10.80;99.90
53410;DHT22;66590;50.734;4.246;2023-04-06T15:08:41;10.80;99.90
53410;DHT22;66590;50.734;4.246;2023-04-06T15:11:09;10.80;99.90
53410;DHT22;66590;50.734;4.246;2023-04-06T15:13:36;11.00;99.90
53410;DHT22;66590;50.734;4.246;2023-04-06T15:16:06;11.10;99.90
53410;DHT22;66590;50.734;4.246;2023-04-06T15:18:34;11.20;99.90
53410;DHT22;66590;50.734;4.246;2023-04-06T15:21:01;11.30;99.90
53410;DHT22;66590;50.734;4.246;2023-04-06T15:23:29;11.40;99.90
53410;DHT22;66590;50.734;4.246;2023-04-06T15:25:56;11.70;99.90
53410;DHT22;66590;50.734;4.246;2023-04-06T15:28:23;11.80;99.90
53410;DHT22;66590;50.734;4.246;2023-04-06T15:30:50;11.80;99.90
53410;DHT22;66590;50.734;4.246;2023-04-06T15:33:20;12.00;99.90
53410;DHT22;66590;50.734;4.246;2023-04-06T15:35:47;12.10;99.90
53410;DHT22;66590;50.734;4.246;2023-04-06T15:38:14;12.10;99.90
53410;DHT22;66590;50.734;4.246;2023-04-06T15:40:46;12.20;99.90
53410;DHT22;66590;50.734;4.246;2023-04-06T15:43:16;12.30;99.90
53410;DHT22;66590;50.734;4.246;2023-04-06T15:45:43;12.40;99.90
53410;DHT22;66590;50.734;4.246;2023-04-06T15:48:11;12.50;99.90